createdAt,value
2022-08-16T00:01:40.553Z,19.85
2022-08-16T00:04:29.315Z,19.86
2022-08-16T00:07:17.312Z,19.83
2022-08-16T00:10:08.195Z,19.81
2022-08-16T00:13:10.388Z,19.75
2022-08-16T00:15:58.350Z,19.73
2022-08-16T00:18:46.277Z,19.74
2022-08-16T00:21:35.463Z,19.73
2022-08-16T00:24:32.389Z,19.75
2022-08-16T00:27:21.858Z,19.76
2022-08-16T00:30:19.383Z,19.72
2022-08-16T00:33:16.668Z,19.71
2022-08-16T00:36:04.869Z,19.63
2022-08-16T00:38:53.078Z,19.65
2022-08-16T00:41:46.915Z,19.56
2022-08-16T00:44:37.976Z,19.49
2022-08-16T00:47:27.171Z,19.50
2022-08-16T00:50:36.278Z,19.49
2022-08-16T00:53:24.696Z,19.42
2022-08-16T00:56:56.003Z,19.29
2022-08-16T00:59:28.895Z,19.32
2022-08-16T01:02:31.920Z,19.24
2022-08-16T01:05:24.007Z,19.25
2022-08-16T01:08:35.862Z,19.27
2022-08-16T01:11:25.559Z,19.16
2022-08-16T01:14:25.101Z,19.15
2022-08-16T01:17:19.986Z,19.15
2022-08-16T01:20:24.610Z,19.14
2022-08-16T01:23:26.801Z,19.15
2022-08-16T01:26:36.706Z,19.14
2022-08-16T01:29:56.685Z,19.19
2022-08-16T01:32:43.693Z,19.13
2022-08-16T01:35:59.526Z,19.11
2022-08-16T01:38:56.837Z,19.14
2022-08-16T01:41:45.977Z,18.97
2022-08-16T01:44:37.825Z,19.02
2022-08-16T01:47:27.609Z,19.10
2022-08-16T01:50:41.867Z,19.15
2022-08-16T01:53:28.449Z,19.16
2022-08-16T01:56:24.511Z,19.22
2022-08-16T01:59:15.611Z,19.21
2022-08-16T02:02:27.052Z,19.11
2022-08-16T02:05:13.885Z,19.12
2022-08-16T02:08:04.599Z,19.10
2022-08-16T02:10:54.365Z,19.03
2022-08-16T02:13:42.302Z,18.99
2022-08-16T02:16:30.185Z,18.99
2022-08-16T02:19:19.829Z,18.89
2022-08-16T02:22:33.861Z,18.80
2022-08-16T02:25:21.062Z,18.70
2022-08-16T02:28:08.913Z,18.63
2022-08-16T02:31:00.277Z,18.56
2022-08-16T02:33:50.759Z,18.36
2022-08-16T02:36:48.221Z,18.52
2022-08-16T02:39:38.068Z,18.55
2022-08-16T02:42:29.294Z,18.52
2022-08-16T02:45:19.405Z,18.54
2022-08-16T02:48:28.257Z,18.44
2022-08-16T02:51:16.663Z,18.43
2022-08-16T02:54:06.890Z,18.36
2022-08-16T02:56:56.435Z,18.41
2022-08-16T02:59:45.073Z,18.42
2022-08-16T03:02:33.149Z,18.43
2022-08-16T03:05:21.411Z,18.42
2022-08-16T03:08:50.874Z,18.41
2022-08-16T03:11:20.602Z,18.33
2022-08-16T03:14:11.486Z,18.11
2022-08-16T03:17:01.884Z,18.26
2022-08-16T03:19:59.537Z,18.11
2022-08-16T03:22:48.462Z,18.24
2022-08-16T03:25:43.236Z,18.20
2022-08-16T03:28:32.695Z,18.26
2022-08-16T03:31:20.604Z,18.19
2022-08-16T03:34:08.890Z,18.18
2022-08-16T03:36:58.082Z,18.14
2022-08-16T03:39:46.306Z,18.11
2022-08-16T03:43:02.149Z,18.12
2022-08-16T03:45:45.069Z,18.09
2022-08-16T03:48:40.392Z,17.96
2022-08-16T03:51:29.093Z,18.04
2022-08-16T03:54:17.144Z,18.06
2022-08-16T03:57:05.584Z,17.99
2022-08-16T03:59:59.948Z,17.98
2022-08-16T04:02:48.282Z,18.00
2022-08-16T04:05:44.255Z,17.99
2022-08-16T04:08:34.766Z,18.01
2022-08-16T04:11:27.402Z,17.94
2022-08-16T04:14:31.118Z,18.01
2022-08-16T04:17:21.275Z,18.02
2022-08-16T04:20:23.829Z,18.02
2022-08-16T04:23:19.641Z,18.02
2022-08-16T04:26:08.072Z,17.98
2022-08-16T04:29:16.254Z,17.96
2022-08-16T04:32:09.343Z,17.98
2022-08-16T04:35:00.223Z,17.95
2022-08-16T04:37:53.712Z,18.01
2022-08-16T04:40:42.138Z,17.98
2022-08-16T04:43:30.039Z,17.99
2022-08-16T04:46:29.937Z,18.05
2022-08-16T04:49:26.881Z,18.04
2022-08-16T04:52:35.074Z,18.05
2022-08-16T04:55:32.000Z,18.17
2022-08-16T04:58:44.646Z,18.15
2022-08-16T05:01:58.878Z,18.34
2022-08-16T05:04:43.922Z,18.43
2022-08-16T05:07:32.331Z,18.43
2022-08-16T05:10:22.792Z,18.50
2022-08-16T05:13:15.605Z,18.67
2022-08-16T05:16:04.917Z,18.57
2022-08-16T05:18:56.580Z,18.89
2022-08-16T05:21:44.824Z,18.92
2022-08-16T05:24:34.595Z,19.00
2022-08-16T05:27:23.118Z,19.24
2022-08-16T05:30:34.338Z,19.54
2022-08-16T05:33:21.559Z,19.76
2022-08-16T05:36:14.334Z,19.86
2022-08-16T05:39:03.817Z,20.17
2022-08-16T05:41:52.793Z,20.33
2022-08-16T05:44:40.732Z,20.61
2022-08-16T05:47:33.004Z,20.86
2022-08-16T05:50:34.084Z,21.09
2022-08-16T05:53:24.130Z,21.29
2022-08-16T05:56:12.924Z,21.63
2022-08-16T05:59:10.936Z,21.90
2022-08-16T06:01:59.354Z,22.07
2022-08-16T06:04:49.775Z,22.35
2022-08-16T06:07:42.254Z,22.59
2022-08-16T06:10:34.691Z,22.90
2022-08-16T06:13:26.349Z,23.19
2022-08-16T06:16:27.370Z,23.41
2022-08-16T06:19:19.519Z,23.57
2022-08-16T06:22:37.649Z,23.83
2022-08-16T06:25:36.221Z,23.91
2022-08-16T06:28:36.501Z,23.85
2022-08-16T06:31:28.382Z,23.72
2022-08-16T06:34:54.833Z,23.73
2022-08-16T06:37:36.952Z,23.98
2022-08-16T06:40:33.633Z,24.05
2022-08-16T06:43:27.715Z,24.36
2022-08-16T06:46:39.671Z,24.34
2022-08-16T06:49:31.390Z,24.50
2022-08-16T06:52:59.732Z,24.72
2022-08-16T06:55:38.119Z,24.94
2022-08-16T06:58:31.373Z,25.16
2022-08-16T07:01:44.844Z,25.34
2022-08-16T07:04:36.981Z,25.36
2022-08-16T07:07:34.226Z,25.53
2022-08-16T07:10:27.603Z,25.81
2022-08-16T07:13:43.787Z,25.96
2022-08-16T07:16:30.534Z,26.02
2022-08-16T07:19:22.550Z,25.79
2022-08-16T07:22:39.231Z,25.52
2022-08-16T07:25:32.128Z,25.28
2022-08-16T07:28:24.788Z,25.22
2022-08-16T07:31:18.548Z,25.56
2022-08-16T07:34:10.150Z,25.93
2022-08-16T07:37:05.626Z,25.80
2022-08-16T07:40:10.942Z,26.17
2022-08-16T07:43:04.000Z,26.26
2022-08-16T07:45:54.646Z,26.41
2022-08-16T07:48:47.499Z,26.71
2022-08-16T07:51:40.254Z,27.26
2022-08-16T07:54:32.014Z,27.17
2022-08-16T07:57:24.272Z,27.55
2022-08-16T08:00:18.805Z,27.81
2022-08-16T08:03:12.135Z,27.91
2022-08-16T08:06:05.155Z,27.87
2022-08-16T08:09:03.855Z,28.29
2022-08-16T08:12:00.864Z,28.36
2022-08-16T08:14:56.712Z,28.96
2022-08-16T08:17:50.411Z,29.55
2022-08-16T08:20:45.326Z,29.36
2022-08-16T08:23:52.122Z,29.11
2022-08-16T08:26:44.811Z,29.75
2022-08-16T08:29:42.615Z,30.26
2022-08-16T08:32:57.254Z,30.37
2022-08-16T08:35:45.972Z,30.97
2022-08-16T08:38:43.569Z,31.77
2022-08-16T08:41:36.578Z,32.62
2022-08-16T08:44:30.579Z,32.91
2022-08-16T08:47:23.457Z,33.88
2022-08-16T08:50:31.742Z,34.33
2022-08-16T08:53:29.951Z,35.62
2022-08-16T08:56:25.314Z,36.56
2022-08-16T08:59:20.421Z,37.24
2022-08-16T09:02:16.191Z,38.17
2022-08-16T09:05:15.195Z,37.24
2022-08-16T09:08:06.296Z,38.02
2022-08-16T09:11:03.164Z,39.23
2022-08-16T09:13:55.563Z,40.03
2022-08-16T09:17:00.814Z,41.03
2022-08-16T09:19:59.407Z,41.53
2022-08-16T09:22:52.626Z,41.36
2022-08-16T09:25:44.667Z,39.80
2022-08-16T09:29:06.743Z,38.47
2022-08-16T09:31:53.607Z,38.87
2022-08-16T09:34:45.928Z,39.45
2022-08-16T09:37:37.365Z,40.64
2022-08-16T09:40:32.487Z,41.10
2022-08-16T09:44:00.884Z,40.51
2022-08-16T09:46:49.669Z,40.57
2022-08-16T09:49:43.650Z,40.48
2022-08-16T09:52:44.505Z,40.27
2022-08-16T09:55:44.428Z,39.68
2022-08-16T09:58:40.513Z,39.53
2022-08-16T10:01:36.422Z,39.49
2022-08-16T10:04:30.273Z,38.18
2022-08-16T10:07:44.251Z,38.91
2022-08-16T10:10:36.522Z,40.16
2022-08-16T10:13:28.181Z,39.92
2022-08-16T10:16:21.828Z,39.82
2022-08-16T10:19:14.178Z,39.58
2022-08-16T10:22:13.035Z,40.01
2022-08-16T10:25:04.793Z,39.00
2022-08-16T10:28:27.799Z,39.25
2022-08-16T10:31:16.700Z,40.72
2022-08-16T10:34:31.225Z,41.27
2022-08-16T10:37:18.897Z,40.49
2022-08-16T10:40:28.616Z,39.96
2022-08-16T10:43:22.341Z,39.05
2022-08-16T10:46:33.808Z,37.19
2022-08-16T10:49:27.520Z,34.75
2022-08-16T10:52:20.559Z,33.61
2022-08-16T10:58:34.264Z,31.66
2022-08-16T11:01:43.906Z,31.19
2022-08-16T11:05:06.033Z,30.61
2022-08-16T11:07:55.038Z,30.27
2022-08-16T11:11:06.536Z,30.12
2022-08-16T11:14:10.704Z,29.91
2022-08-16T11:17:10.402Z,30.06
2022-08-16T11:20:41.915Z,30.03
2022-08-16T11:23:15.727Z,29.97
2022-08-16T11:26:16.410Z,29.92
2022-08-16T11:29:17.544Z,29.87
2022-08-16T11:32:11.377Z,29.92
2022-08-16T11:35:14.240Z,29.67
2022-08-16T11:38:47.349Z,29.50
2022-08-16T11:41:29.499Z,29.53
2022-08-16T11:44:52.051Z,29.52
2022-08-16T11:47:35.669Z,29.26
2022-08-16T11:50:26.413Z,29.21
2022-08-16T11:53:18.978Z,29.10
2022-08-16T11:56:10.030Z,28.95
2022-08-16T11:59:06.991Z,29.07
2022-08-16T12:02:04.270Z,29.23
2022-08-16T12:05:15.067Z,29.28
2022-08-16T12:08:06.672Z,29.40
2022-08-16T12:11:02.428Z,29.49
2022-08-16T12:13:53.687Z,29.53
2022-08-16T12:16:48.574Z,29.45
2022-08-16T12:19:40.195Z,29.07
2022-08-16T12:22:31.113Z,29.00
2022-08-16T12:25:26.024Z,29.00
2022-08-16T12:28:25.345Z,28.69
2022-08-16T12:31:28.449Z,28.55
2022-08-16T12:34:28.981Z,28.56
2022-08-16T12:37:21.692Z,28.39
2022-08-16T12:40:24.065Z,28.50
2022-08-16T12:43:18.176Z,28.38
2022-08-16T12:46:13.665Z,28.28
2022-08-16T12:49:08.448Z,28.45
2022-08-16T12:52:01.444Z,28.59
2022-08-16T12:54:56.520Z,28.64
2022-08-16T12:57:58.149Z,28.57
2022-08-16T13:00:49.637Z,28.57
2022-08-16T13:03:41.029Z,28.41
2022-08-16T13:06:33.641Z,28.28
2022-08-16T13:09:28.760Z,28.39
2022-08-16T13:12:25.034Z,28.49
2022-08-16T13:15:21.992Z,28.65
2022-08-16T13:18:27.241Z,28.78
2022-08-16T13:21:25.758Z,28.87
2022-08-16T13:24:16.249Z,28.94
2022-08-16T13:27:10.460Z,28.86
2022-08-16T13:30:01.055Z,28.95
2022-08-16T13:32:53.344Z,28.84
2022-08-16T13:35:55.778Z,28.75
2022-08-16T13:38:49.844Z,28.70
2022-08-16T13:41:41.902Z,28.76
2022-08-16T13:44:55.898Z,28.71
2022-08-16T13:47:44.025Z,28.79
2022-08-16T13:50:51.364Z,28.82
2022-08-16T13:53:44.123Z,28.88
2022-08-16T13:56:38.942Z,28.89
2022-08-16T13:59:31.410Z,29.01
2022-08-16T14:02:26.149Z,29.05
2022-08-16T14:05:20.092Z,29.02
2022-08-16T14:08:13.174Z,29.02
2022-08-16T14:11:11.720Z,28.90
2022-08-16T14:14:05.523Z,28.95
2022-08-16T14:17:01.235Z,28.91
2022-08-16T14:19:52.395Z,28.82
2022-08-16T14:22:52.409Z,28.88
2022-08-16T14:25:54.102Z,28.84
2022-08-16T14:28:44.780Z,28.85
2022-08-16T14:31:39.362Z,28.79
2022-08-16T14:34:30.049Z,28.89
2022-08-16T14:37:21.967Z,28.90
2022-08-16T14:40:16.122Z,28.89
2022-08-16T14:43:11.530Z,29.00
2022-08-16T14:46:08.317Z,29.02
2022-08-16T14:49:00.465Z,29.07
2022-08-16T14:51:52.223Z,29.17
2022-08-16T14:54:45.885Z,29.20
2022-08-16T14:57:37.589Z,29.19
2022-08-16T15:00:32.843Z,29.14
2022-08-16T15:03:25.511Z,29.07
2022-08-16T15:06:17.077Z,28.94
2022-08-16T15:09:07.953Z,28.89
2022-08-16T15:12:07.570Z,28.91
2022-08-16T15:15:20.566Z,29.03
2022-08-16T15:18:14.375Z,28.98
2022-08-16T15:21:16.687Z,28.95
2022-08-16T15:24:06.455Z,28.94
2022-08-16T15:27:06.280Z,28.87
2022-08-16T15:30:02.620Z,28.84
2022-08-16T15:33:19.621Z,28.87
2022-08-16T15:36:17.713Z,28.92
2022-08-16T15:39:35.655Z,28.98
2022-08-16T15:42:27.658Z,28.92
2022-08-16T15:45:41.283Z,28.75
2022-08-16T15:48:34.430Z,28.77
2022-08-16T15:51:31.222Z,28.72
2022-08-16T15:54:30.676Z,28.74
2022-08-16T15:57:30.318Z,28.80
2022-08-16T16:00:33.478Z,28.86
2022-08-16T16:03:27.206Z,28.91
2022-08-16T16:06:20.265Z,28.89
2022-08-16T16:09:20.893Z,28.91
2022-08-16T16:12:53.000Z,28.90
2022-08-16T16:15:50.222Z,28.97
2022-08-16T16:18:40.940Z,28.98
2022-08-16T16:21:42.364Z,28.97
2022-08-16T16:24:36.110Z,28.94
2022-08-16T16:27:27.753Z,28.92
2022-08-16T16:30:37.388Z,28.93
2022-08-16T16:33:34.087Z,28.80
2022-08-16T16:36:29.632Z,28.66
2022-08-16T16:39:19.268Z,28.69
2022-08-16T16:42:11.019Z,28.69
2022-08-16T16:45:21.679Z,28.73
2022-08-16T16:48:14.613Z,28.71
2022-08-16T16:51:10.387Z,28.76
2022-08-16T16:54:05.233Z,28.66
2022-08-16T16:56:57.938Z,28.62
2022-08-16T16:59:48.553Z,28.59
2022-08-16T17:02:53.800Z,28.68
2022-08-16T17:05:51.048Z,28.68
2022-08-16T17:08:51.346Z,28.69
2022-08-16T17:11:45.184Z,28.68
2022-08-16T17:14:38.484Z,28.59
2022-08-16T17:17:59.107Z,28.57
2022-08-16T17:20:44.753Z,28.63
2022-08-16T17:23:58.389Z,28.62
2022-08-16T17:26:48.809Z,28.56
2022-08-16T17:30:00.986Z,28.46
2022-08-16T17:33:01.528Z,28.36
2022-08-16T17:35:56.111Z,28.09
2022-08-16T17:38:49.457Z,28.19
2022-08-16T17:41:39.714Z,28.16
2022-08-16T17:44:31.207Z,28.14
2022-08-16T17:47:24.185Z,28.10
2022-08-16T17:50:16.715Z,28.01
2022-08-16T17:53:10.003Z,28.04
2022-08-16T17:56:02.097Z,28.12
2022-08-16T17:58:54.598Z,28.06
2022-08-16T18:01:46.331Z,28.09
2022-08-16T18:04:48.879Z,28.04
2022-08-16T18:07:43.672Z,27.96
2022-08-16T18:10:36.217Z,27.93
2022-08-16T18:13:28.850Z,27.83
2022-08-16T18:16:20.693Z,27.80
2022-08-16T18:19:13.141Z,27.83
2022-08-16T18:22:19.194Z,27.79
2022-08-16T18:25:09.372Z,27.72
2022-08-16T18:28:00.735Z,27.64
2022-08-16T18:30:54.266Z,27.63
2022-08-16T18:33:49.497Z,27.52
2022-08-16T18:36:46.518Z,27.43
2022-08-16T18:39:38.070Z,27.31
2022-08-16T18:42:31.984Z,27.24
2022-08-16T18:45:23.617Z,27.21
2022-08-16T18:48:17.816Z,26.99
2022-08-16T18:51:20.347Z,26.87
2022-08-16T18:54:19.666Z,26.77
2022-08-16T18:57:11.527Z,26.69
2022-08-16T19:00:02.015Z,26.61
2022-08-16T19:03:14.835Z,26.47
2022-08-16T19:06:11.334Z,26.28
2022-08-16T19:09:05.403Z,26.18
2022-08-16T19:11:57.066Z,26.13
2022-08-16T19:14:47.502Z,26.03
2022-08-16T19:17:38.714Z,25.85
2022-08-16T19:20:31.840Z,25.77
2022-08-16T19:23:26.269Z,25.66
2022-08-16T19:26:25.743Z,25.43
2022-08-16T19:29:18.223Z,25.33
2022-08-16T19:32:24.321Z,25.19
2022-08-16T19:35:17.903Z,25.12
2022-08-16T19:38:09.457Z,25.02
2022-08-16T19:41:01.573Z,24.92
2022-08-16T19:43:52.146Z,24.82
2022-08-16T19:46:46.557Z,24.69
2022-08-16T19:49:39.112Z,24.59
2022-08-16T19:52:32.025Z,24.51
2022-08-16T19:55:22.792Z,24.45
2022-08-16T19:58:14.167Z,24.36
2022-08-16T20:01:06.545Z,24.30
2022-08-16T20:03:58.291Z,24.12
2022-08-16T20:06:49.753Z,23.98
2022-08-16T20:09:41.503Z,23.96
2022-08-16T20:12:31.596Z,23.92
2022-08-16T20:15:26.796Z,23.83
2022-08-16T20:18:24.399Z,23.74
2022-08-16T20:21:15.830Z,23.64
2022-08-16T20:24:32.993Z,23.60
2022-08-16T20:27:20.080Z,23.54
2022-08-16T20:30:11.005Z,23.49
2022-08-16T20:33:01.168Z,23.40
2022-08-16T20:35:55.929Z,23.25
2022-08-16T20:38:47.754Z,23.23
2022-08-16T20:41:38.206Z,23.22
2022-08-16T20:44:29.496Z,23.18
2022-08-16T20:47:24.712Z,23.19
2022-08-16T20:50:16.672Z,23.06
2022-08-16T20:53:08.198Z,23.04
2022-08-16T20:55:59.727Z,23.04
2022-08-16T20:58:49.336Z,22.99
2022-08-16T21:01:46.494Z,22.98
2022-08-16T21:04:40.461Z,22.97
2022-08-16T21:07:35.205Z,22.92
2022-08-16T21:10:26.656Z,22.88
2022-08-16T21:13:18.687Z,22.86
2022-08-16T21:16:08.239Z,22.78
2022-08-16T21:18:58.577Z,22.79
2022-08-16T21:21:49.553Z,22.70
2022-08-16T21:24:40.381Z,22.68
2022-08-16T21:27:30.717Z,22.58
2022-08-16T21:30:27.573Z,22.49
2022-08-16T21:33:23.391Z,22.45
2022-08-16T21:36:14.558Z,22.41
2022-08-16T21:39:05.669Z,22.35
2022-08-16T21:41:57.443Z,22.31
2022-08-16T21:44:49.277Z,22.31
2022-08-16T21:47:38.595Z,22.26
2022-08-16T21:50:30.303Z,22.23
2022-08-16T21:53:22.620Z,22.18
2022-08-16T21:56:16.953Z,22.16
2022-08-16T21:59:10.843Z,22.15
2022-08-16T22:02:00.847Z,22.07
2022-08-16T22:04:51.616Z,22.06
2022-08-16T22:07:39.967Z,21.92
2022-08-16T22:10:44.810Z,21.88
2022-08-16T22:13:41.457Z,21.80
2022-08-16T22:16:37.493Z,21.86
2022-08-16T22:19:28.059Z,21.73
2022-08-16T22:22:19.411Z,21.72
2022-08-16T22:25:07.692Z,21.54
2022-08-16T22:27:55.763Z,21.49
2022-08-16T22:30:47.579Z,21.40
2022-08-16T22:33:35.648Z,21.10
2022-08-16T22:36:27.858Z,21.16
2022-08-16T22:39:18.921Z,21.11
2022-08-16T22:42:09.688Z,21.11
2022-08-16T22:44:59.050Z,20.97
2022-08-16T22:47:48.794Z,20.94
2022-08-16T22:50:37.267Z,20.90
2022-08-16T22:53:26.889Z,20.87
2022-08-16T22:56:17.807Z,20.91
2022-08-16T22:59:05.781Z,20.89
2022-08-16T23:01:54.534Z,20.85
2022-08-16T23:04:42.617Z,20.76
2022-08-16T23:07:30.545Z,20.70
2022-08-16T23:10:20.118Z,20.64
2022-08-16T23:13:09.502Z,20.69
2022-08-16T23:16:03.096Z,20.67
2022-08-16T23:19:00.212Z,20.64
2022-08-16T23:21:49.214Z,20.59
2022-08-16T23:24:40.994Z,20.52
2022-08-16T23:27:44.624Z,20.42
2022-08-16T23:30:36.683Z,20.35
2022-08-16T23:33:29.323Z,20.33
2022-08-16T23:36:17.436Z,20.33
2022-08-16T23:39:05.362Z,20.33
2022-08-16T23:41:53.606Z,20.32
2022-08-16T23:44:58.206Z,20.37
2022-08-16T23:47:47.672Z,20.38
2022-08-16T23:50:38.493Z,20.27
2022-08-16T23:53:31.497Z,20.27
2022-08-16T23:56:20.770Z,20.21
2022-08-16T23:59:08.879Z,20.23
